Time;durP1;ratioP1;P1;durP2;ratioP2;P2;SDS_P1;SDS_P2;PMS_P1;PMS_P2;Temp;Humidity;BMP_temperature;BMP_pressure;BME280_temperature;BME280_humidity;BME280_pressure;Samples;Min_cycle;Max_cycle;Signal;HPM_P1;HPM_P2
2021/07/12 00:00:31;;;;;;;7.33;6.73;;;28.80;61.60;;;;;;5016244;28;20610;-74
2021/07/12 00:02:59;;;;;;;7.10;6.50;;;28.90;61.60;;;;;;5021232;28;20497;-74
2021/07/12 00:05:27;;;;;;;7.20;6.60;;;28.90;61.60;;;;;;5027172;28;20585;-75
2021/07/12 00:07:55;;;;;;;7.20;6.50;;;28.80;61.70;;;;;;5008134;28;20461;-74
2021/07/12 00:10:26;;;;;;;6.60;6.20;;;28.80;61.60;;;;;;5007661;28;20470;-75
2021/07/12 00:12:54;;;;;;;7.30;6.80;;;28.80;61.60;;;;;;5007253;28;20535;-74
2021/07/12 00:15:23;;;;;;;7.87;7.23;;;28.80;61.60;;;;;;5012939;28;20475;-75
2021/07/12 00:17:51;;;;;;;7.60;7.10;;;28.80;61.30;;;;;;5007554;28;20538;-74
2021/07/12 00:20:19;;;;;;;6.90;6.50;;;28.80;61.30;;;;;;5015722;28;20466;-75
2021/07/12 00:22:47;;;;;;;7.67;7.07;;;28.80;61.40;;;;;;5037202;28;20485;-74
2021/07/12 00:25:15;;;;;;;6.67;6.27;;;28.80;61.20;;;;;;5046656;28;20467;-74
2021/07/12 00:27:45;;;;;;;6.70;6.17;;;28.80;61.20;;;;;;5021047;28;20471;-74
2021/07/12 00:30:15;;;;;;;7.83;7.10;;;28.80;61.20;;;;;;5023152;28;20492;-74
2021/07/12 00:32:43;;;;;;;7.13;6.53;;;28.80;61.30;;;;;;5023759;28;20544;-74
2021/07/12 00:35:11;;;;;;;7.53;7.03;;;28.80;61.20;;;;;;5026785;28;20524;-74
2021/07/12 00:37:39;;;;;;;7.50;6.90;;;28.80;61.20;;;;;;5026488;28;20475;-75
2021/07/12 00:40:09;;;;;;;6.93;6.43;;;28.80;61.20;;;;;;5026938;28;20454;-75
2021/07/12 00:42:37;;;;;;;7.20;6.80;;;28.80;61.30;;;;;;5025811;28;20447;-74
2021/07/12 00:45:08;;;;;;;7.77;6.87;;;28.80;61.10;;;;;;5026638;28;20451;-74
2021/07/12 00:47:36;;;;;;;7.57;7.07;;;28.80;61.00;;;;;;5006572;28;20437;-73
2021/07/12 00:50:05;;;;;;;7.07;6.57;;;28.80;60.90;;;;;;5005540;28;20532;-72
2021/07/12 00:52:33;;;;;;;7.30;6.70;;;28.80;60.90;;;;;;5005633;28;20424;-73
2021/07/12 00:55:01;;;;;;;6.57;6.17;;;28.80;60.80;;;;;;5005861;28;20429;-73
2021/07/12 00:57:30;;;;;;;6.90;6.40;;;28.70;60.80;;;;;;5005973;28;20439;-74
2021/07/12 00:59:58;;;;;;;11.40;6.70;;;28.70;60.60;;;;;;5006486;28;20425;-73
2021/07/12 01:02:28;;;;;;;7.30;6.60;;;28.70;60.60;;;;;;5005919;28;20567;-73
2021/07/12 01:04:55;;;;;;;7.30;6.60;;;28.70;60.50;;;;;;5005985;28;20444;-73
2021/07/12 01:07:23;;;;;;;6.37;5.87;;;28.70;60.40;;;;;;5005716;28;20507;-73
2021/07/12 01:09:51;;;;;;;7.50;6.90;;;28.70;60.40;;;;;;5005191;28;20550;-73
2021/07/12 01:12:23;;;;;;;6.90;6.50;;;28.70;60.40;;;;;;5008855;28;20468;-73
2021/07/12 01:14:54;;;;;;;7.33;6.67;;;28.70;60.30;;;;;;5017169;28;20542;-73
2021/07/12 01:17:25;;;;;;;7.40;6.90;;;28.60;60.20;;;;;;5015552;28;20472;-73
2021/07/12 01:20:23;;;;;;;7.03;6.53;;;28.60;60.30;;;;;;5014646;28;20461;-73
2021/07/12 01:22:58;;;;;;;7.00;6.50;;;28.60;60.40;;;;;;5005708;28;20474;-73
2021/07/12 01:26:01;;;;;;;7.40;6.90;;;28.60;60.40;;;;;;5016012;28;20447;-73
2021/07/12 01:29:06;;;;;;;6.93;6.43;;;28.60;60.40;;;;;;5013285;28;20494;-73
2021/07/12 01:32:03;;;;;;;7.17;6.57;;;28.50;60.50;;;;;;5019777;28;20468;-73
2021/07/12 01:34:41;;;;;;;7.17;6.67;;;28.60;60.50;;;;;;5020382;28;20478;-73
2021/07/12 01:37:18;;;;;;;7.60;7.00;;;28.50;60.40;;;;;;5005742;28;20432;-73
2021/07/12 01:39:48;;;;;;;7.07;6.40;;;28.50;60.30;;;;;;5012225;28;20558;-73
2021/07/12 01:42:20;;;;;;;6.80;6.20;;;28.50;60.30;;;;;;5011974;28;20481;-73
2021/07/12 01:44:53;;;;;;;6.73;6.30;;;28.50;60.30;;;;;;5010532;28;20459;-73
2021/07/12 01:47:27;;;;;;;6.70;6.20;;;28.50;60.10;;;;;;5011641;28;20447;-73
2021/07/12 01:49:59;;;;;;;7.00;6.33;;;28.50;60.10;;;;;;5013437;28;20449;-73
2021/07/12 01:52:31;;;;;;;7.07;6.63;;;28.50;60.00;;;;;;5015800;28;20471;-73
2021/07/12 01:55:01;;;;;;;6.33;6.03;;;28.40;60.10;;;;;;5008408;28;20539;-73
2021/07/12 01:57:31;;;;;;;8.77;6.10;;;28.50;60.00;;;;;;5007198;28;20458;-73
2021/07/12 02:00:01;;;;;;;6.37;5.77;;;28.40;59.90;;;;;;5022044;28;20550;-73
2021/07/12 02:02:29;;;;;;;6.93;6.47;;;28.40;60.20;;;;;;5015882;28;20558;-73
2021/07/12 02:05:00;;;;;;;7.30;6.70;;;28.40;59.90;;;;;;5027541;28;20554;-73
2021/07/12 02:07:28;;;;;;;6.90;6.30;;;28.40;60.00;;;;;;5044098;28;20449;-73
2021/07/12 02:09:56;;;;;;;7.07;6.57;;;28.40;60.00;;;;;;5044109;28;20521;-73
2021/07/12 02:12:24;;;;;;;7.30;6.70;;;28.40;60.00;;;;;;5044138;28;20439;-73
2021/07/12 02:14:53;;;;;;;6.80;6.30;;;28.40;59.90;;;;;;5044430;28;20446;-73
2021/07/12 02:17:21;;;;;;;7.70;6.67;;;28.40;59.70;;;;;;5024391;28;20471;-73
2021/07/12 02:19:49;;;;;;;6.83;6.33;;;28.30;59.80;;;;;;5024233;28;20455;-73
2021/07/12 02:22:18;;;;;;;6.80;6.23;;;28.40;59.80;;;;;;5025000;28;20467;-73
2021/07/12 02:24:48;;;;;;;7.17;6.57;;;28.40;59.80;;;;;;5024812;28;20428;-73
2021/07/12 02:27:16;;;;;;;6.63;6.20;;;28.30;59.70;;;;;;5025133;28;20443;-73
2021/07/12 02:29:45;;;;;;;6.63;6.23;;;28.40;59.60;;;;;;5025075;28;20534;-73
2021/07/12 02:32:13;;;;;;;7.47;6.87;;;28.30;59.70;;;;;;5023995;28;20436;-73
2021/07/12 02:34:41;;;;;;;7.40;6.90;;;28.30;59.50;;;;;;5005368;28;20432;-73
2021/07/12 02:37:08;;;;;;;6.97;6.53;;;28.30;59.60;;;;;;5005201;28;20468;-73
2021/07/12 02:39:38;;;;;;;7.07;6.50;;;28.30;59.60;;;;;;5004973;28;20484;-73
2021/07/12 02:42:06;;;;;;;6.93;6.53;;;28.30;59.50;;;;;;5004775;28;20563;-73
2021/07/12 02:44:34;;;;;;;7.77;6.40;;;28.30;59.60;;;;;;5004966;28;20556;-73
2021/07/12 02:47:02;;;;;;;7.17;6.67;;;28.30;59.60;;;;;;5004437;28;20444;-73
2021/07/12 02:49:30;;;;;;;7.73;7.13;;;28.30;59.50;;;;;;5004261;28;20464;-73
2021/07/12 02:52:00;;;;;;;7.30;6.77;;;28.30;59.70;;;;;;5004444;28;20473;-73
2021/07/12 02:54:30;;;;;;;6.93;6.43;;;28.30;59.60;;;;;;5004622;28;20472;-73
2021/07/12 02:56:59;;;;;;;7.00;6.60;;;28.30;59.40;;;;;;5004887;28;20440;-73
2021/07/12 02:59:27;;;;;;;7.37;6.73;;;28.30;59.60;;;;;;5004933;28;20472;-73
2021/07/12 03:01:55;;;;;;;7.00;6.50;;;28.30;59.20;;;;;;5004035;28;20543;-73
2021/07/12 03:04:23;;;;;;;7.40;6.90;;;28.20;59.40;;;;;;5004480;28;20447;-73
2021/07/12 03:06:52;;;;;;;9.00;6.87;;;28.20;59.30;;;;;;5003464;28;20479;-73
2021/07/12 03:09:24;;;;;;;7.13;6.63;;;28.20;59.50;;;;;;5004669;28;20476;-73
2021/07/12 03:11:54;;;;;;;7.00;6.37;;;28.20;59.30;;;;;;5004440;28;20508;-73
2021/07/12 03:14:26;;;;;;;6.57;6.17;;;28.20;59.50;;;;;;5004761;28;20448;-73
2021/07/12 03:16:54;;;;;;;6.77;6.27;;;28.20;59.40;;;;;;5004540;28;20444;-73
2021/07/12 03:19:25;;;;;;;6.87;6.47;;;28.20;59.20;;;;;;5004774;28;20471;-73
2021/07/12 03:21:53;;;;;;;7.10;6.40;;;28.20;59.30;;;;;;5003867;28;20448;-73
2021/07/12 03:24:21;;;;;;;6.70;6.30;;;28.20;59.10;;;;;;5004089;28;20455;-73
2021/07/12 03:26:52;;;;;;;6.30;5.90;;;28.20;59.20;;;;;;5004430;28;20445;-73
2021/07/12 03:29:21;;;;;;;6.53;6.13;;;28.20;59.40;;;;;;5004574;28;20432;-73
2021/07/12 03:31:50;;;;;;;7.07;6.57;;;28.20;59.20;;;;;;5004020;28;20427;-73
2021/07/12 03:34:18;;;;;;;7.10;6.67;;;28.20;59.10;;;;;;5004216;28;20418;-73
2021/07/12 03:36:46;;;;;;;6.53;6.03;;;28.20;59.20;;;;;;5004369;28;20539;-73
2021/07/12 03:39:14;;;;;;;6.63;6.23;;;28.20;59.00;;;;;;5004166;28;20519;-73
2021/07/12 03:41:41;;;;;;;6.70;6.10;;;28.20;59.10;;;;;;5004086;28;20486;-73
2021/07/12 03:44:09;;;;;;;6.17;5.87;;;28.20;59.10;;;;;;5019235;28;20470;-73
2021/07/12 03:46:41;;;;;;;6.53;6.10;;;28.10;59.00;;;;;;5024014;28;20531;-73
2021/07/12 03:49:11;;;;;;;7.07;6.47;;;28.20;59.00;;;;;;5023950;28;20418;-73
2021/07/12 03:51:39;;;;;;;6.77;6.37;;;28.10;58.90;;;;;;5023515;28;20432;-73
2021/07/12 03:54:08;;;;;;;6.90;6.40;;;28.10;58.90;;;;;;5023530;28;20541;-73
2021/07/12 03:56:35;;;;;;;6.20;5.80;;;28.20;59.10;;;;;;5023886;28;20445;-73
2021/07/12 03:59:03;;;;;;;6.97;6.40;;;28.20;59.00;;;;;;5023883;28;20534;-73
2021/07/12 04:01:31;;;;;;;6.43;6.03;;;28.10;58.80;;;;;;5021167;28;20733;-73
2021/07/12 04:03:59;;;;;;;6.83;6.27;;;28.10;58.90;;;;;;5033990;28;20467;-72
2021/07/12 04:06:29;;;;;;;6.50;6.10;;;28.10;59.00;;;;;;5014608;28;20451;-73
2021/07/12 04:08:57;;;;;;;7.70;6.30;;;28.10;58.80;;;;;;5020690;28;20605;-73
2021/07/12 04:11:30;;;;;;;6.60;6.20;;;28.10;58.80;;;;;;5023571;28;20533;-73
2021/07/12 04:13:58;;;;;;;6.30;5.90;;;28.10;58.80;;;;;;5020321;28;20526;-73
2021/07/12 04:16:26;;;;;;;6.60;6.20;;;28.10;58.70;;;;;;5022988;28;20534;-74
2021/07/12 04:18:54;;;;;;;6.00;5.60;;;28.10;58.80;;;;;;5026168;28;20451;-73
2021/07/12 04:21:22;;;;;;;6.60;6.10;;;28.20;58.60;;;;;;5027074;28;20470;-73
2021/07/12 04:23:52;;;;;;;6.87;6.07;;;28.10;58.70;;;;;;5026612;28;20479;-73
2021/07/12 04:26:19;;;;;;;6.63;6.13;;;28.20;58.50;;;;;;5026640;28;20467;-73
2021/07/12 04:28:47;;;;;;;6.17;5.77;;;28.20;58.60;;;;;;5026931;28;20446;-73
2021/07/12 04:31:15;;;;;;;6.13;5.73;;;28.20;58.40;;;;;;5021352;28;20532;-73
2021/07/12 04:33:43;;;;;;;6.20;5.83;;;28.20;58.30;;;;;;5027245;28;20505;-73
2021/07/12 04:36:12;;;;;;;6.47;5.93;;;28.20;58.40;;;;;;5026948;28;20530;-73
2021/07/12 04:38:40;;;;;;;6.70;6.20;;;28.20;58.90;;;;;;5027028;28;20467;-73
2021/07/12 04:41:09;;;;;;;6.20;5.80;;;28.20;58.40;;;;;;5026666;28;20534;-73
2021/07/12 04:43:37;;;;;;;6.63;6.13;;;28.20;58.30;;;;;;5026604;28;20472;-73
2021/07/12 04:46:05;;;;;;;6.47;5.97;;;28.20;58.30;;;;;;5026331;28;20543;-73
2021/07/12 04:48:33;;;;;;;6.73;6.23;;;28.20;58.20;;;;;;5011700;28;20539;-73
2021/07/12 04:51:01;;;;;;;6.07;5.60;;;28.20;58.20;;;;;;5006425;28;20459;-73
2021/07/12 04:53:29;;;;;;;6.70;6.07;;;28.30;58.20;;;;;;5006743;28;20443;-73
2021/07/12 04:55:57;;;;;;;5.83;5.40;;;28.30;58.20;;;;;;5006818;28;20436;-73
2021/07/12 04:58:30;;;;;;;6.07;5.67;;;28.30;58.10;;;;;;5006518;28;20539;-73
2021/07/12 05:00:58;;;;;;;6.47;5.93;;;28.30;58.10;;;;;;5006784;28;20483;-73
2021/07/12 05:03:31;;;;;;;6.50;6.00;;;28.30;58.00;;;;;;5006402;28;20472;-73
2021/07/12 05:05:59;;;;;;;6.33;5.93;;;28.30;58.10;;;;;;5005968;28;20531;-73
2021/07/12 05:08:27;;;;;;;5.93;5.63;;;28.30;58.10;;;;;;5009430;28;20454;-73
2021/07/12 05:10:55;;;;;;;6.40;5.97;;;28.30;58.00;;;;;;5006403;28;20523;-73
2021/07/12 05:13:23;;;;;;;6.20;5.90;;;28.40;58.00;;;;;;5006496;28;20467;-73
2021/07/12 05:15:52;;;;;;;6.20;5.90;;;28.40;57.90;;;;;;5006445;28;20403;-73
2021/07/12 05:18:20;;;;;;;6.47;5.90;;;28.40;57.90;;;;;;5006228;28;20419;-73
2021/07/12 05:20:48;;;;;;;6.20;5.80;;;28.40;57.80;;;;;;5006662;28;20452;-73
2021/07/12 05:23:15;;;;;;;6.93;6.37;;;28.40;57.80;;;;;;5005470;28;20472;-73
2021/07/12 05:25:43;;;;;;;6.37;5.87;;;28.40;58.20;;;;;;5017100;28;20444;-73
2021/07/12 05:28:11;;;;;;;7.63;6.20;;;28.40;57.80;;;;;;5025483;28;20529;-73
2021/07/12 05:30:39;;;;;;;6.83;6.30;;;28.50;57.60;;;;;;5025906;28;20467;-73
2021/07/12 05:33:10;;;;;;;6.73;6.13;;;28.50;57.50;;;;;;5025784;28;20446;-73
2021/07/12 05:35:38;;;;;;;6.63;5.73;;;28.50;57.50;;;;;;5025446;28;20535;-73
2021/07/12 05:38:07;;;;;;;6.40;5.90;;;28.50;57.40;;;;;;5025472;28;20448;-73
2021/07/12 05:40:35;;;;;;;6.07;5.70;;;28.50;57.40;;;;;;5025677;28;20449;-73
2021/07/12 05:43:03;;;;;;;6.90;6.50;;;28.60;57.40;;;;;;5014138;28;20535;-73
2021/07/12 05:45:31;;;;;;;6.80;6.20;;;28.60;57.20;;;;;;5005820;28;20461;-73
2021/07/12 05:47:59;;;;;;;6.60;6.20;;;28.70;57.30;;;;;;5005656;28;20515;-73
2021/07/12 05:50:28;;;;;;;6.70;6.20;;;28.70;57.10;;;;;;5005624;28;20432;-73
2021/07/12 05:52:56;;;;;;;6.10;5.60;;;28.70;57.10;;;;;;5005223;28;20460;-73
2021/07/12 05:55:23;;;;;;;10.73;6.40;;;28.70;57.20;;;;;;5005616;28;20532;-73
2021/07/12 05:57:51;;;;;;;6.20;5.70;;;28.70;57.20;;;;;;5005195;28;20523;-73
2021/07/12 06:00:20;;;;;;;6.27;5.87;;;28.70;57.10;;;;;;5005529;28;20491;-73
2021/07/12 06:02:47;;;;;;;6.40;5.90;;;28.70;57.00;;;;;;5011281;28;20532;-73
2021/07/12 06:05:15;;;;;;;6.63;6.10;;;28.80;57.00;;;;;;5024140;28;20456;-73
2021/07/12 06:07:45;;;;;;;6.03;5.63;;;28.80;56.90;;;;;;5025255;28;20516;-73
2021/07/12 06:10:13;;;;;;;6.47;6.07;;;28.80;56.90;;;;;;5025164;28;20520;-73
2021/07/12 06:12:41;;;;;;;6.93;6.23;;;28.80;56.80;;;;;;5024389;28;20530;-73
2021/07/12 06:15:10;;;;;;;6.77;5.97;;;28.80;56.90;;;;;;5024646;28;20458;-73
2021/07/12 06:17:38;;;;;;;7.07;6.43;;;28.80;56.90;;;;;;5024636;28;20501;-73
2021/07/12 06:20:07;;;;;;;5.73;5.40;;;28.90;56.70;;;;;;5024355;28;20503;-73
2021/07/12 06:22:35;;;;;;;6.40;6.00;;;28.80;57.00;;;;;;5024720;28;20463;-73
2021/07/12 06:25:05;;;;;;;6.50;6.10;;;28.90;56.80;;;;;;5024969;28;20479;-73
2021/07/12 06:27:33;;;;;;;6.77;6.20;;;28.90;56.80;;;;;;5025040;28;20523;-73
2021/07/12 06:30:01;;;;;;;6.17;5.77;;;28.90;56.90;;;;;;5024133;28;20443;-73
2021/07/12 06:32:29;;;;;;;6.90;6.40;;;28.90;56.70;;;;;;5019714;28;20479;-73
2021/07/12 06:34:57;;;;;;;6.07;5.77;;;28.90;56.70;;;;;;5024440;28;20459;-73
2021/07/12 06:37:25;;;;;;;6.20;5.70;;;28.90;56.90;;;;;;5023991;28;20438;-73
2021/07/12 06:39:52;;;;;;;6.70;6.20;;;28.90;56.70;;;;;;5024013;28;20530;-73
2021/07/12 06:42:22;;;;;;;6.63;6.20;;;29.00;56.70;;;;;;5024331;28;20435;-73
2021/07/12 06:44:50;;;;;;;7.00;6.50;;;29.00;56.60;;;;;;5024457;28;20475;-73
2021/07/12 06:47:18;;;;;;;7.30;6.70;;;29.00;56.80;;;;;;5025085;28;20448;-71
2021/07/12 06:49:45;;;;;;;6.93;6.43;;;29.00;56.50;;;;;;5021187;28;20480;-71
2021/07/12 06:52:13;;;;;;;6.83;6.33;;;29.00;56.70;;;;;;5022343;28;20422;-71
2021/07/12 06:54:41;;;;;;;6.43;6.03;;;29.00;56.50;;;;;;5024202;28;20434;-71
2021/07/12 06:57:09;;;;;;;6.73;6.23;;;29.00;56.70;;;;;;5024125;28;20509;-71
2021/07/12 06:59:38;;;;;;;7.27;6.47;;;29.00;56.70;;;;;;5024594;28;20468;-71
2021/07/12 07:02:06;;;;;;;7.00;6.40;;;29.00;56.60;;;;;;5023251;28;20479;-71
2021/07/12 07:04:34;;;;;;;7.27;6.53;;;29.00;56.60;;;;;;5023651;28;20471;-71
2021/07/12 07:07:02;;;;;;;6.80;6.40;;;29.00;56.70;;;;;;5023787;28;20451;-71
2021/07/12 07:09:31;;;;;;;7.33;6.73;;;29.00;56.70;;;;;;5007922;28;20449;-72
2021/07/12 07:11:58;;;;;;;8.30;7.60;;;29.00;56.70;;;;;;5004974;28;20539;-71
2021/07/12 07:14:26;;;;;;;6.70;6.20;;;29.10;57.30;;;;;;5021854;28;20442;-71
2021/07/12 07:16:56;;;;;;;6.80;6.30;;;29.10;56.50;;;;;;5020231;28;20539;-71
2021/07/12 07:19:24;;;;;;;7.63;6.90;;;29.10;56.60;;;;;;5015582;28;20462;-71
2021/07/12 07:21:54;;;;;;;7.40;6.90;;;29.20;56.40;;;;;;5013075;28;20527;-72
2021/07/12 07:24:22;;;;;;;6.70;6.30;;;29.20;56.30;;;;;;5014417;28;20487;-71
2021/07/12 07:26:50;;;;;;;6.60;6.00;;;29.30;56.40;;;;;;5014765;28;20471;-71
2021/07/12 07:29:20;;;;;;;7.10;6.50;;;29.30;56.20;;;;;;5017335;28;20466;-71
2021/07/12 07:31:49;;;;;;;7.00;6.50;;;29.30;56.00;;;;;;5010556;28;20532;-71
2021/07/12 07:34:36;;;;;;;7.23;6.70;;;29.40;56.10;;;;;;5014345;28;20520;-71
2021/07/12 07:37:04;;;;;;;7.70;7.10;;;29.50;56.10;;;;;;5012982;28;20444;-71
2021/07/12 07:39:32;;;;;;;10.03;6.87;;;29.50;56.20;;;;;;5012942;28;20436;-71
2021/07/12 07:42:20;;;;;;;7.73;7.20;;;29.50;55.90;;;;;;5013450;28;20425;-71
2021/07/12 07:44:48;;;;;;;7.00;6.60;;;29.60;56.10;;;;;;5013477;28;20562;-71
2021/07/12 07:47:16;;;;;;;7.27;6.77;;;29.50;56.10;;;;;;5014317;28;20506;-71
2021/07/12 07:49:45;;;;;;;7.23;6.67;;;29.50;56.00;;;;;;5012619;28;20428;-71
2021/07/12 07:52:14;;;;;;;7.30;6.80;;;29.50;55.90;;;;;;5015003;28;20522;-71
2021/07/12 07:54:42;;;;;;;7.10;6.53;;;29.60;55.90;;;;;;5018213;28;20436;-71
2021/07/12 07:57:09;;;;;;;7.57;6.97;;;29.60;55.90;;;;;;5018304;28;20424;-71
2021/07/12 07:59:37;;;;;;;7.33;6.63;;;29.60;55.90;;;;;;5015600;28;20538;-71
2021/07/12 08:02:07;;;;;;;6.40;6.00;;;29.60;55.80;;;;;;5012085;28;20535;-71
2021/07/12 08:04:49;;;;;;;10.10;7.13;;;29.70;55.60;;;;;;5018248;28;20459;-71
2021/07/12 08:07:17;;;;;;;7.83;7.30;;;29.70;55.60;;;;;;5018038;28;20475;-71
2021/07/12 08:09:45;;;;;;;8.17;7.47;;;29.70;55.60;;;;;;5017407;28;20463;-71
2021/07/12 08:12:14;;;;;;;7.17;6.67;;;29.70;55.70;;;;;;5014617;28;20455;-71
2021/07/12 08:14:41;;;;;;;8.17;7.47;;;29.70;55.60;;;;;;5014906;28;20507;-71
2021/07/12 08:17:09;;;;;;;7.43;6.83;;;29.70;55.70;;;;;;5015820;28;20508;-71
2021/07/12 08:19:37;;;;;;;6.70;6.20;;;29.70;55.80;;;;;;5015829;28;20427;-71
2021/07/12 08:22:07;;;;;;;7.50;7.00;;;29.70;55.80;;;;;;5017330;28;20486;-71
2021/07/12 08:24:35;;;;;;;7.37;6.83;;;29.70;55.80;;;;;;5017049;28;20470;-71
2021/07/12 08:27:04;;;;;;;7.07;6.57;;;29.70;55.80;;;;;;5015042;28;20436;-71
2021/07/12 08:29:32;;;;;;;7.13;6.53;;;29.70;55.70;;;;;;5016718;28;20518;-71
2021/07/12 08:31:59;;;;;;;6.40;6.00;;;29.80;55.80;;;;;;5017636;28;20511;-71
2021/07/12 08:34:27;;;;;;;7.60;7.10;;;29.80;55.80;;;;;;5014975;28;20424;-71
2021/07/12 08:36:56;;;;;;;6.93;6.43;;;29.80;55.70;;;;;;5017789;28;20432;-71
2021/07/12 08:39:25;;;;;;;7.77;6.50;;;29.90;55.90;;;;;;5006855;28;20452;-71
2021/07/12 08:41:52;;;;;;;7.90;7.13;;;29.90;55.60;;;;;;5006490;28;20499;-71
2021/07/12 08:44:27;;;;;;;6.70;6.20;;;29.90;55.60;;;;;;5006431;28;20456;-72
2021/07/12 08:46:55;;;;;;;6.73;6.30;;;29.90;55.50;;;;;;5005634;28;20464;-73
2021/07/12 08:49:23;;;;;;;6.50;6.10;;;29.90;55.50;;;;;;5006417;28;20518;-73
2021/07/12 08:51:51;;;;;;;6.97;6.50;;;30.00;55.50;;;;;;5006301;28;20444;-73
2021/07/12 08:54:18;;;;;;;7.13;6.53;;;30.00;55.40;;;;;;5006434;28;20511;-74
2021/07/12 08:56:48;;;;;;;7.30;6.70;;;30.00;55.30;;;;;;5006508;28;20432;-72
2021/07/12 08:59:27;;;;;;;5.93;5.63;;;30.10;55.20;;;;;;5006621;28;20437;-72
2021/07/12 09:02:06;;;;;;;6.87;6.30;;;30.20;55.10;;;;;;5021854;28;20459;-74
2021/07/12 09:04:34;;;;;;;9.27;6.53;;;30.20;54.90;;;;;;5021468;28;20504;-71
2021/07/12 09:07:04;;;;;;;9.13;6.87;;;30.20;54.90;;;;;;5023494;28;20537;-72
2021/07/12 09:09:32;;;;;;;8.23;6.17;;;30.30;54.90;;;;;;5011475;28;20464;-72
2021/07/12 09:12:11;;;;;;;7.33;6.73;;;30.30;54.90;;;;;;5026749;28;20511;-72
2021/07/12 09:14:40;;;;;;;7.20;6.60;;;30.40;55.10;;;;;;5005816;28;20511;-73
2021/07/12 09:17:09;;;;;;;8.53;6.90;;;30.30;55.60;;;;;;5005603;28;20442;-72
2021/07/12 09:19:37;;;;;;;7.50;6.70;;;30.30;55.40;;;;;;5005495;28;20523;-72
2021/07/12 09:22:06;;;;;;;7.73;6.90;;;30.20;55.40;;;;;;5006001;28;20444;-72
2021/07/12 09:24:36;;;;;;;7.93;7.13;;;30.20;55.50;;;;;;5005861;28;20454;-72
2021/07/12 09:27:12;;;;;;;8.93;8.10;;;30.10;55.60;;;;;;5005641;28;20498;-72
2021/07/12 09:29:41;;;;;;;8.77;7.50;;;30.10;55.80;;;;;;5005898;28;20530;-72
2021/07/12 09:32:11;;;;;;;7.97;7.23;;;30.10;55.80;;;;;;5006022;28;20552;-73
2021/07/12 09:34:39;;;;;;;12.00;7.80;;;30.10;55.80;;;;;;5005857;28;20483;-73
2021/07/12 09:37:07;;;;;;;10.27;7.87;;;30.10;55.70;;;;;;5004083;28;20527;-73
2021/07/12 09:39:37;;;;;;;7.00;6.40;;;30.10;55.70;;;;;;5005278;28;20423;-73
2021/07/12 09:42:07;;;;;;;7.87;6.97;;;30.20;55.60;;;;;;5008388;28;20489;-72
2021/07/12 09:44:37;;;;;;;8.80;6.70;;;30.30;55.70;;;;;;5012857;28;20436;-72
2021/07/12 09:47:10;;;;;;;7.60;6.90;;;30.40;55.40;;;;;;5016076;28;20467;-73
2021/07/12 09:49:38;;;;;;;8.07;7.30;;;30.50;55.20;;;;;;5015577;28;20429;-72
2021/07/12 09:52:08;;;;;;;8.47;7.40;;;30.60;55.10;;;;;;5014320;28;20482;-73
2021/07/12 09:54:37;;;;;;;8.80;7.00;;;30.60;54.80;;;;;;5014043;28;20494;-72
2021/07/12 09:57:07;;;;;;;8.60;6.57;;;30.70;54.60;;;;;;5010452;28;20527;-72
2021/07/12 09:59:37;;;;;;;7.43;6.60;;;30.70;54.50;;;;;;5005712;28;20447;-72
2021/07/12 10:02:06;;;;;;;7.53;6.40;;;30.60;54.40;;;;;;5022004;28;20526;-73
2021/07/12 10:04:33;;;;;;;8.90;6.90;;;30.60;54.60;;;;;;5044965;28;20502;-73
2021/07/12 10:07:02;;;;;;;9.90;7.60;;;30.60;54.60;;;;;;5045193;28;20588;-73
2021/07/12 10:09:30;;;;;;;6.70;6.20;;;30.70;54.60;;;;;;5045136;28;20445;-73
2021/07/12 10:11:58;;;;;;;7.83;6.90;;;30.80;54.40;;;;;;5024731;28;20551;-73
2021/07/12 10:14:25;;;;;;;9.13;7.43;;;30.80;54.30;;;;;;5010649;28;20559;-73
2021/07/12 10:16:55;;;;;;;9.03;6.63;;;30.90;54.20;;;;;;5004602;28;20428;-73
2021/07/12 10:19:23;;;;;;;7.00;6.33;;;31.00;54.10;;;;;;5005624;28;20467;-73
2021/07/12 10:21:51;;;;;;;12.73;6.43;;;31.10;53.90;;;;;;5004895;28;20535;-73
2021/07/12 10:24:21;;;;;;;7.73;6.73;;;31.10;54.30;;;;;;5005110;28;20482;-73
2021/07/12 10:26:54;;;;;;;7.17;6.57;;;31.20;53.50;;;;;;5005125;28;20559;-73
2021/07/12 10:29:27;;;;;;;7.63;6.90;;;31.20;53.30;;;;;;5004865;28;20479;-72
2021/07/12 10:32:08;;;;;;;6.83;6.13;;;31.20;53.40;;;;;;5013149;28;20445;-73
2021/07/12 10:34:37;;;;;;;10.17;6.80;;;31.30;53.30;;;;;;5026970;28;20432;-73
2021/07/12 10:37:07;;;;;;;11.23;6.37;;;31.30;53.30;;;;;;5025063;28;20535;-73
2021/07/12 10:40:04;;;;;;;9.97;6.20;;;31.20;53.30;;;;;;5024430;28;20530;-73
2021/07/12 10:43:02;;;;;;;7.80;7.20;;;31.30;53.10;;;;;;5012633;28;20489;-72
2021/07/12 10:45:54;;;;;;;7.60;7.00;;;31.10;53.20;;;;;;5004311;28;20458;-71
2021/07/12 10:48:33;;;;;;;8.17;7.37;;;31.10;53.30;;;;;;5004169;28;20425;-71
2021/07/12 10:51:01;;;;;;;6.93;6.33;;;31.10;53.50;;;;;;5004383;28;20520;-72
2021/07/12 10:53:32;;;;;;;7.33;6.73;;;31.20;53.20;;;;;;4999217;28;20478;-73
2021/07/12 10:56:05;;;;;;;7.60;6.83;;;31.30;53.70;;;;;;5016046;28;20546;-73
2021/07/12 10:58:49;;;;;;;7.83;6.97;;;31.30;53.00;;;;;;5024134;28;20526;-73
2021/07/12 11:01:39;;;;;;;7.37;6.80;;;31.40;52.80;;;;;;5020552;28;20444;-73
2021/07/12 11:04:33;;;;;;;7.27;6.67;;;31.40;52.70;;;;;;5005004;28;20448;-73
2021/07/12 11:07:03;;;;;;;6.90;6.30;;;31.40;52.60;;;;;;5004728;28;20503;-73
2021/07/12 11:09:56;;;;;;;7.27;6.60;;;31.50;52.70;;;;;;5004651;28;20475;-73
2021/07/12 11:12:39;;;;;;;6.27;5.87;;;31.50;52.40;;;;;;5004662;28;20467;-73
2021/07/12 11:15:18;;;;;;;7.07;6.57;;;31.50;52.70;;;;;;5004758;28;20482;-73
2021/07/12 11:17:53;;;;;;;6.23;5.83;;;31.50;52.70;;;;;;5004786;28;20475;-73
2021/07/12 11:20:58;;;;;;;6.60;6.10;;;31.60;52.50;;;;;;5004241;28;20512;-73
2021/07/12 11:24:00;;;;;;;6.33;5.93;;;31.60;52.20;;;;;;5004349;28;20460;-73
2021/07/12 11:26:48;;;;;;;6.17;5.77;;;31.60;52.90;;;;;;5004465;28;20471;-73
2021/07/12 11:29:19;;;;;;;6.87;6.20;;;31.60;52.20;;;;;;5008404;28;20428;-73
2021/07/12 11:31:48;;;;;;;7.30;6.60;;;31.50;52.30;;;;;;5008447;28;20530;-73
2021/07/12 11:34:18;;;;;;;6.47;6.07;;;31.40;52.40;;;;;;5008139;28;20448;-73
2021/07/12 11:36:51;;;;;;;6.40;5.80;;;31.30;52.50;;;;;;5007744;28;20471;-73
2021/07/12 11:39:38;;;;;;;6.37;5.83;;;31.30;52.70;;;;;;5022696;28;20453;-73
2021/07/12 11:42:14;;;;;;;6.60;6.10;;;31.30;52.90;;;;;;5027997;28;20526;-73
2021/07/12 11:44:50;;;;;;;6.50;6.00;;;31.20;52.90;;;;;;5027643;28;20466;-73
2021/07/12 11:47:19;;;;;;;6.50;6.10;;;31.20;53.10;;;;;;5027681;28;20550;-73
2021/07/12 11:49:51;;;;;;;5.80;5.50;;;31.20;53.20;;;;;;5027521;28;20439;-73
2021/07/12 11:52:20;;;;;;;6.67;6.07;;;31.30;53.20;;;;;;5027031;28;20481;-73
2021/07/12 11:54:48;;;;;;;6.30;5.80;;;31.20;53.00;;;;;;5027818;28;20510;-73
2021/07/12 11:57:16;;;;;;;6.00;5.70;;;31.30;53.10;;;;;;5019228;28;20514;-73
2021/07/12 11:59:45;;;;;;;6.23;5.73;;;31.30;52.90;;;;;;5039440;28;20525;-73
2021/07/12 12:02:14;;;;;;;6.60;6.03;;;31.40;53.10;;;;;;5014971;28;20440;-73
2021/07/12 12:04:57;;;;;;;6.00;5.60;;;31.60;52.90;;;;;;5010878;28;20539;-73
2021/07/12 12:07:35;;;;;;;6.37;5.87;;;31.60;52.50;;;;;;5007453;28;20476;-73
2021/07/12 12:10:06;;;;;;;6.87;6.17;;;31.70;52.50;;;;;;5011089;28;20450;-73
2021/07/12 12:12:35;;;;;;;6.27;5.87;;;31.80;52.20;;;;;;5006898;28;20440;-73
2021/07/12 12:15:09;;;;;;;6.07;5.57;;;31.90;52.10;;;;;;5025800;28;20447;-73
2021/07/12 12:17:41;;;;;;;6.53;5.97;;;31.90;51.80;;;;;;5015524;28;20443;-73
2021/07/12 12:20:24;;;;;;;6.03;5.63;;;31.90;51.80;;;;;;5021259;28;20519;-78
2021/07/12 12:23:18;;;;;;;6.50;5.70;;;32.00;51.50;;;;;;5007149;28;20531;-75
2021/07/12 12:25:52;;;;;;;5.77;5.30;;;32.30;52.10;;;;;;5022853;28;20521;-76
2021/07/12 12:28:24;;;;;;;7.30;6.77;;;32.60;51.50;;;;;;5006916;28;20478;-76
2021/07/12 12:30:53;;;;;;;7.43;6.83;;;32.90;50.90;;;;;;5007627;28;20436;-77
2021/07/12 12:33:28;;;;;;;6.03;5.63;;;32.90;49.30;;;;;;5016261;28;20451;-77
2021/07/12 12:35:57;;;;;;;6.53;6.13;;;33.20;49.50;;;;;;5026736;28;20470;-76
2021/07/12 12:38:27;;;;;;;6.70;6.07;;;33.50;49.10;;;;;;5025351;28;20455;-77
2021/07/12 12:41:04;;;;;;;6.80;6.20;;;33.60;47.40;;;;;;5026478;28;20439;-77
2021/07/12 12:43:32;;;;;;;6.50;5.97;;;33.70;47.40;;;;;;5026211;28;20470;-77
2021/07/12 12:46:01;;;;;;;5.33;4.93;;;33.90;46.80;;;;;;5010227;28;20551;-77
2021/07/12 12:48:41;;;;;;;6.10;5.80;;;34.00;46.30;;;;;;5007034;28;20484;-77
2021/07/12 12:51:22;;;;;;;6.10;5.47;;;34.00;46.10;;;;;;5021901;28;20439;-79
2021/07/12 12:53:58;;;;;;;6.27;5.77;;;34.00;45.70;;;;;;5026502;28;20497;-77
2021/07/12 12:56:26;;;;;;;10.87;9.83;;;33.80;45.90;;;;;;5024877;28;20518;-78
2021/07/12 12:59:00;;;;;;;10.00;9.20;;;33.80;46.20;;;;;;5021015;28;20461;-76
2021/07/12 13:01:36;;;;;;;8.87;7.33;;;33.90;46.70;;;;;;5022691;28;20518;-75
2021/07/12 13:04:06;;;;;;;10.80;9.70;;;33.90;47.50;;;;;;5010965;28;20439;-76